Terminal Aerodrome Forecast
Issued by NWS

Home | Current Version | Previous Version | Text Only | Print | Product List | Glossary On
Versions: 1 2 3 4 5 6 7 8 9 10 11 12 13
000
FTUS44 KLIX 270600 AAA
TAFMCB
TAF AMD
KMCB 270625Z 2706/2806 12004KT P6SM BKN040 OVC060
      TEMPO 2706/2708 2SM RA BR OVC015
     FM270800 13006KT P6SM OVC010
     FM271100 12006KT 3SM +SHRA OVC008
     FM271300 12006KT 3/4SM +SHRA OVC008
     FM280400 18005KT 3/4SM +SHRA OVC003=

USA.gov is the U.S. government's official web portal to all federal, state and local government web resources and services.